Nome Airport Nome US
ICAO: PAOM
IATA:
Category: Medium
Scheduled Services:

Elevation: 37 ft
TransAlt. 18000 ft.

Airport Communications:
ASOS:119.925
ATIS:119.925
ANCHORAGE CNTR:133.3
CTAF:123.6
RDO:122.45
TWEB:115

PAOM Zoom In..

If you have problems with the map follow the link
https://www.worldairports.se/pages/airport.php?
ICAO=PAOM

Runways:

(A) RW 03 length 5576 ft width 150 ft
---- / hdg 28

(B) RW 10 length 6001 ft width 150 ft
---- / hdg 96

(C) RW 21 length 5576 ft width 150 ft
---- / hdg 208

(D) RW 28 length 6001 ft width 150 ft
ILS 108.70 / hdg 276

Location; PAOM
Day. 18 / Time. 23.53 Zulu
* Altimeter: 29.76
* Temperature: 02° c. 35.6°f.
* Wind from: 000° Speed 00 kn.
Dewpoint: -04° c.
Visibility: 10 Statute Miles.
Clouds: Clear (automated report).

PAOM 182353Z 00000KT 10SM CLR 02/M04 A2976 RMK AO2 SLP076 T00171044 10022 21044 58003 $


Wind - Calm.

 
 
jpsmedia.com for Web Design worldairports.se 2018   terms of use